Date,TemperatureHighF,TemperatureAvgF,TemperatureLowF,DewpointHighF,DewpointAvgF,DewpointLowF,HumidityHigh,HumidityAvg,HumidityLow,PressureMaxIn,PressureMinIn,WindSpeedMaxMPH,WindSpeedAvgMPH,GustSpeedMaxMPH,PrecipitationSumIn
2013-3-1,43.0,35.3,29.5,40.6,33.8,28.4,95,94,91,0.00,40.00,5,2,14,0.00
2013-3-2,40.2,34.4,28.9,35.6,31.4,26.8,91,88,83,0.00,40.00,4,2,11,0.00
2013-3-3,40.7,32.3,28.8,35.9,29.7,26.5,93,90,82,0.00,40.00,5,3,13,0.00
2013-3-4,39.8,31.1,24.7,32.8,27.4,22.0,90,85,75,0.00,40.00,10,7,21,0.00
2013-3-5,46.3,34.4,26.5,33.2,27.9,23.8,90,78,58,0.00,40.00,5,3,14,0.00
2013-3-6,38.6,33.4,30.9,33.5,31.2,29.0,93,91,81,0.00,40.00,11,7,26,0.30
2013-3-7,33.3,30.2,28.3,31.0,28.1,26.6,93,91,86,0.00,40.00,8,6,22,1.10
2013-3-8,37.0,31.4,27.9,31.8,27.9,23.8,93,87,66,0.00,40.00,6,4,20,1.60
2013-3-9,53.3,37.7,26.8,30.3,23.9,19.9,93,61,27,0.00,40.00,5,2,14,0.30
2013-3-10,47.7,38.2,24.9,33.6,30.4,23.2,93,74,55,0.00,40.00,5,2,11,0.00
2013-3-11,49.4,39.9,32.7,38.7,34.4,30.5,93,81,60,0.00,40.00,8,4,15,0.00
2013-3-12,51.9,45.9,38.5,49.1,43.9,36.9,93,92,86,0.00,40.00,8,3,20,2.90
2013-3-13,47.7,39.5,32.7,41.1,30.6,20.9,93,72,42,0.00,40.00,7,2,17,0.00
2013-3-14,33.7,28.1,20.2,24.9,16.0,7.9,72,60,52,0.00,40.00,10,2,22,0.00
2013-3-15,38.6,27.8,17.0,27.4,16.3,8.9,84,63,36,0.00,40.00,5,1,20,0.00
2013-3-16,37.2,30.8,25.0,27.4,17.9,12.9,85,60,38,0.00,40.00,3,0,14,0.00
2013-3-17,36.6,28.3,22.6,17.5,13.3,7.2,75,54,32,0.00,40.00,4,1,17,0.00
2013-3-18,35.8,25.9,14.8,24.5,9.1,2.9,90,51,28,0.00,40.00,7,1,14,0.00
2013-3-19,32.9,29.8,25.4,31.1,28.1,23.7,94,93,90,0.00,40.00,7,3,20,0.30
2013-3-20,36.1,28.4,20.3,25.0,20.6,18.0,94,73,54,0.00,40.00,8,1,19,1.00
2013-3-21,38.5,28.0,18.8,26.3,19.9,15.3,93,73,42,0.00,40.00,0,0,0,2.50
2013-3-22,39.3,30.0,21.7,24.6,19.5,15.2,76,65,48,0.00,40.00,9,1,17,0.00
2013-3-23,39.3,32.4,25.1,23.8,21.2,18.7,80,63,48,0.00,40.00,10,3,25,0.00
2013-3-24,48.1,36.5,28.8,27.7,23.6,19.9,74,60,43,0.00,40.00,8,2,15,0.00
2013-3-25,41.7,34.7,28.9,31.6,27.4,22.5,80,74,66,0.00,40.00,8,3,22,0.00
2013-3-26,47.4,37.9,32.8,31.0,26.5,20.8,79,64,41,0.00,40.00,5,2,17,0.00
2013-3-27,51.9,40.0,30.4,30.6,25.5,20.2,71,57,39,0.00,40.00,7,2,17,0.00
2013-3-28,48.9,40.7,33.6,34.9,32.3,30.6,93,73,53,0.00,40.00,4,2,11,0.00
2013-3-29,56.1,43.9,35.7,36.9,32.5,30.2,82,65,40,0.00,40.00,5,2,15,0.00
2013-3-30,55.7,44.5,34.7,32.6,25.8,19.2,80,51,25,0.00,40.00,4,2,14,0.00
2013-3-31,56.7,45.4,35.8,39.3,27.9,21.4,92,52,30,0.00,40.00,11,3,24,0.50